createdAt,value
2017-06-12T00:01:26.068Z,58.20
2017-06-12T00:03:55.151Z,58.30
2017-06-12T00:06:23.448Z,58.30
2017-06-12T00:08:52.550Z,59.10
2017-06-12T00:11:20.829Z,59.10
2017-06-12T00:13:49.867Z,59.40
2017-06-12T00:16:18.188Z,59.30
2017-06-12T00:18:46.548Z,58.90
2017-06-12T00:21:14.819Z,58.60
2017-06-12T00:23:43.123Z,59.20
2017-06-12T00:26:11.515Z,59.50
2017-06-12T00:28:39.820Z,59.40
2017-06-12T00:31:08.151Z,59.60
2017-06-12T00:33:36.423Z,59.70
2017-06-12T00:36:04.704Z,59.80
2017-06-12T00:38:33.007Z,60.10
2017-06-12T00:41:01.280Z,60.10
2017-06-12T00:43:30.364Z,60.50
2017-06-12T00:45:59.432Z,60.80
2017-06-12T00:48:28.323Z,60.50
2017-06-12T00:50:56.607Z,60.90
2017-06-12T00:53:25.300Z,60.80
2017-06-12T00:55:53.575Z,60.50
2017-06-12T00:58:21.855Z,60.40
2017-06-12T01:03:45.627Z,59.30
2017-06-12T01:06:14.664Z,59.30
2017-06-12T01:08:42.927Z,59.20
2017-06-12T01:11:11.237Z,59.10
2017-06-12T01:13:39.507Z,59.00
2017-06-12T01:16:07.788Z,59.10
2017-06-12T01:18:36.106Z,59.10
2017-06-12T01:21:04.716Z,59.50
2017-06-12T01:23:33.742Z,59.30
2017-06-12T01:26:02.067Z,59.20
2017-06-12T01:28:31.111Z,59.30
2017-06-12T01:30:59.392Z,59.30
2017-06-12T01:33:27.715Z,58.60
2017-06-12T01:35:56.762Z,59.80
2017-06-12T01:38:25.043Z,59.80
2017-06-12T01:40:53.372Z,59.50
2017-06-12T01:43:22.406Z,59.80
2017-06-12T01:45:50.687Z,59.70
2017-06-12T01:48:19.003Z,59.80
2017-06-12T01:50:47.284Z,59.70
2017-06-12T01:53:15.555Z,59.40
2017-06-12T01:55:43.868Z,59.20
2017-06-12T01:58:12.144Z,59.70
2017-06-12T02:00:40.436Z,59.50
2017-06-12T02:03:08.762Z,59.90
2017-06-12T02:05:37.036Z,60.10
2017-06-12T02:08:05.304Z,60.20
2017-06-12T02:10:33.626Z,60.10
2017-06-12T02:13:01.894Z,59.80
2017-06-12T02:15:30.938Z,60.50
2017-06-12T02:17:59.261Z,60.50
2017-06-12T02:20:28.295Z,60.70
2017-06-12T02:22:56.574Z,60.50
2017-06-12T02:25:24.891Z,60.80
2017-06-12T02:27:53.172Z,61.00
2017-06-12T02:30:21.474Z,61.20
2017-06-12T02:32:50.552Z,61.70
2017-06-12T02:35:18.835Z,61.70
2017-06-12T02:37:47.885Z,62.90
2017-06-12T02:40:16.206Z,62.00
2017-06-12T02:42:45.257Z,62.80
2017-06-12T02:45:13.531Z,62.60
2017-06-12T02:47:41.860Z,62.30
2017-06-12T02:50:10.900Z,62.30
2017-06-12T02:52:39.188Z,62.30
2017-06-12T02:55:07.495Z,62.60
2017-06-12T02:57:35.769Z,62.40
2017-06-12T03:00:04.081Z,62.20
2017-06-12T03:02:32.400Z,61.80
2017-06-12T03:05:00.679Z,62.60
2017-06-12T03:07:28.947Z,62.70
2017-06-12T03:10:09.197Z,62.80
2017-06-12T03:12:37.467Z,63.00
2017-06-12T03:15:05.745Z,63.10
2017-06-12T03:17:34.060Z,63.20
2017-06-12T03:20:02.331Z,63.10
2017-06-12T03:22:30.608Z,62.90
2017-06-12T03:24:58.927Z,63.10
2017-06-12T03:27:27.985Z,62.90
2017-06-12T03:29:57.228Z,63.10
2017-06-12T03:32:25.556Z,63.10
2017-06-12T03:34:53.835Z,62.80
2017-06-12T03:37:22.119Z,62.30
2017-06-12T03:39:50.468Z,62.80
2017-06-12T03:42:18.729Z,62.60
2017-06-12T03:44:46.991Z,63.10
2017-06-12T03:47:15.316Z,62.90
2017-06-12T03:49:43.584Z,63.50
2017-06-12T03:52:11.856Z,63.30
2017-06-12T03:54:40.179Z,63.60
2017-06-12T03:57:08.441Z,63.70
2017-06-12T03:59:36.707Z,63.40
2017-06-12T04:02:05.111Z,63.50
2017-06-12T04:04:33.422Z,63.30
2017-06-12T04:07:01.691Z,63.20
2017-06-12T04:09:30.035Z,63.60
2017-06-12T04:11:58.423Z,63.40
2017-06-12T04:14:26.685Z,63.20
2017-06-12T04:16:55.000Z,63.70
2017-06-12T04:19:24.031Z,63.90
2017-06-12T04:21:52.304Z,63.90
2017-06-12T04:24:20.663Z,64.10
2017-06-12T04:26:48.936Z,63.70
2017-06-12T04:29:17.216Z,63.80
2017-06-12T04:31:45.523Z,63.90
2017-06-12T04:34:13.799Z,63.70
2017-06-12T04:36:42.070Z,64.00
2017-06-12T04:39:10.372Z,63.70
2017-06-12T04:41:38.640Z,63.50
2017-06-12T04:44:06.907Z,63.80
2017-06-12T04:46:35.223Z,63.10
2017-06-12T04:49:03.509Z,63.20
2017-06-12T04:51:32.548Z,63.20
2017-06-12T04:54:00.866Z,63.10
2017-06-12T04:56:29.124Z,63.50
2017-06-12T04:58:57.391Z,62.80
2017-06-12T05:01:25.703Z,63.70
2017-06-12T05:03:53.972Z,63.70
2017-06-12T05:06:22.250Z,63.90
2017-06-12T05:08:50.571Z,63.60
2017-06-12T05:11:18.829Z,63.40
2017-06-12T05:13:47.096Z,63.10
2017-06-12T05:16:15.407Z,63.60
2017-06-12T05:18:43.679Z,63.30
2017-06-12T05:21:11.958Z,63.10
2017-06-12T05:23:40.280Z,62.90
2017-06-12T05:26:08.547Z,64.40
2017-06-12T05:28:36.808Z,64.90
2017-06-12T05:31:05.126Z,63.50
2017-06-12T05:33:33.396Z,61.80
2017-06-12T05:36:01.678Z,60.30
2017-06-12T05:38:29.980Z,58.50
2017-06-12T05:40:59.013Z,58.10
2017-06-12T05:43:27.283Z,58.00
2017-06-12T05:45:55.602Z,57.80
2017-06-12T05:48:23.871Z,57.80
2017-06-12T05:50:52.140Z,57.20
2017-06-12T05:53:20.444Z,57.30
2017-06-12T05:55:48.720Z,57.60
2017-06-12T05:58:16.987Z,57.40
2017-06-12T06:00:45.312Z,57.40
2017-06-12T06:03:13.583Z,57.30
2017-06-12T06:05:41.857Z,57.30
2017-06-12T06:08:10.171Z,57.30
2017-06-12T06:10:38.439Z,57.40
2017-06-12T06:13:06.711Z,56.20
2017-06-12T06:15:35.031Z,56.40
2017-06-12T06:18:03.309Z,54.80
2017-06-12T06:20:32.344Z,53.90
2017-06-12T06:23:00.667Z,53.60
2017-06-12T06:25:28.939Z,52.30
2017-06-12T06:27:57.221Z,51.30
2017-06-12T06:30:25.549Z,51.20
2017-06-12T06:32:53.835Z,50.30
2017-06-12T06:35:22.107Z,51.80
2017-06-12T06:37:50.418Z,50.70
2017-06-12T06:40:18.692Z,50.80
2017-06-12T06:42:46.967Z,51.20
2017-06-12T06:45:15.282Z,52.40
2017-06-12T06:47:43.546Z,51.50
2017-06-12T06:50:11.828Z,51.30
2017-06-12T06:52:40.143Z,50.00
2017-06-12T06:55:08.410Z,49.30
2017-06-12T06:57:36.688Z,49.70
2017-06-12T07:00:05.003Z,48.20
2017-06-12T07:02:33.272Z,48.20
2017-06-12T07:05:01.551Z,46.90
2017-06-12T07:07:29.867Z,46.80
2017-06-12T07:09:58.137Z,47.20
2017-06-12T07:12:26.405Z,46.60
2017-06-12T07:14:54.753Z,47.70
2017-06-12T07:17:23.030Z,46.00
2017-06-12T07:19:51.287Z,45.40
2017-06-12T07:22:19.599Z,44.70
2017-06-12T07:24:47.872Z,46.50
2017-06-12T07:27:16.142Z,44.50
2017-06-12T07:29:44.466Z,43.90
2017-06-12T07:32:12.738Z,44.00
2017-06-12T07:34:41.014Z,44.70
2017-06-12T07:37:09.332Z,46.00
2017-06-12T07:39:37.620Z,47.70
2017-06-12T07:42:05.880Z,48.40
2017-06-12T07:44:34.188Z,48.90
2017-06-12T07:47:02.471Z,50.00
2017-06-12T07:49:30.747Z,49.50
2017-06-12T07:51:59.072Z,49.00
2017-06-12T07:54:28.148Z,50.80
2017-06-12T07:56:56.411Z,50.90
2017-06-12T07:59:24.735Z,48.70
2017-06-12T08:01:53.035Z,48.30
2017-06-12T08:04:21.303Z,47.90
2017-06-12T08:06:49.629Z,48.60
2017-06-12T08:09:17.905Z,47.90
2017-06-12T08:11:46.167Z,48.30
2017-06-12T08:14:14.484Z,47.50
2017-06-12T08:16:43.525Z,48.10
2017-06-12T08:19:11.812Z,48.10
2017-06-12T08:21:40.121Z,48.90
2017-06-12T08:24:08.397Z,48.10
2017-06-12T08:26:36.673Z,48.50
2017-06-12T08:29:05.010Z,48.60
2017-06-12T08:31:33.284Z,48.90
2017-06-12T08:34:01.563Z,49.60
2017-06-12T08:36:29.883Z,50.90
2017-06-12T08:38:58.151Z,51.50
2017-06-12T08:41:26.503Z,50.50
2017-06-12T08:43:54.819Z,51.10
2017-06-12T08:46:23.146Z,51.10
2017-06-12T08:48:51.420Z,50.60
2017-06-12T08:51:19.743Z,50.20
2017-06-12T08:53:48.013Z,49.10
2017-06-12T08:56:16.350Z,48.70
2017-06-12T08:58:44.660Z,48.20
2017-06-12T09:01:12.944Z,48.60
2017-06-12T09:03:41.202Z,49.40
2017-06-12T09:06:09.507Z,49.70
2017-06-12T09:08:37.775Z,49.30
2017-06-12T09:11:06.749Z,49.20
2017-06-12T09:13:35.070Z,48.40
2017-06-12T09:16:04.120Z,48.90
2017-06-12T09:18:32.384Z,49.00
2017-06-12T09:21:00.709Z,48.40
2017-06-12T09:23:28.984Z,48.20
2017-06-12T09:25:57.247Z,47.60
2017-06-12T09:28:25.563Z,46.50
2017-06-12T09:30:54.596Z,48.40
2017-06-12T09:33:22.870Z,48.40
2017-06-12T09:35:51.193Z,49.20
2017-06-12T09:38:19.459Z,49.80
2017-06-12T09:40:47.740Z,49.70
2017-06-12T09:43:16.055Z,49.90
2017-06-12T09:45:44.327Z,49.80
2017-06-12T09:48:13.359Z,49.50
2017-06-12T09:50:41.691Z,49.50
2017-06-12T09:53:10.736Z,51.20
2017-06-12T09:55:39.026Z,51.20
2017-06-12T09:58:07.339Z,51.00
2017-06-12T10:00:35.609Z,51.60
2017-06-12T10:03:04.658Z,52.10
2017-06-12T10:05:32.978Z,52.00
2017-06-12T10:08:01.301Z,52.40
2017-06-12T10:10:29.575Z,52.00
2017-06-12T10:12:57.888Z,52.00
2017-06-12T10:15:26.155Z,52.20
2017-06-12T10:17:54.438Z,52.20
2017-06-12T10:20:22.753Z,51.90
2017-06-12T10:22:51.796Z,51.60
2017-06-12T10:25:20.068Z,51.60
2017-06-12T10:27:48.382Z,51.80
2017-06-12T10:30:16.657Z,52.50
2017-06-12T10:32:44.986Z,51.90
2017-06-12T10:35:13.320Z,52.20
2017-06-12T10:37:41.583Z,52.40
2017-06-12T10:40:09.921Z,53.00
2017-06-12T10:42:38.232Z,52.50
2017-06-12T10:45:06.510Z,51.10
2017-06-12T10:47:34.788Z,50.30
2017-06-12T10:50:03.121Z,50.00
2017-06-12T10:52:31.394Z,49.30
2017-06-12T10:54:59.664Z,47.40
2017-06-12T10:57:28.763Z,46.90
2017-06-12T10:59:57.032Z,46.80
2017-06-12T11:02:26.063Z,47.20
2017-06-12T11:04:54.375Z,47.20
2017-06-12T11:07:22.638Z,45.80
2017-06-12T11:09:50.952Z,46.60
2017-06-12T11:12:19.305Z,46.10
2017-06-12T11:14:47.663Z,46.60
2017-06-12T11:17:15.970Z,46.90
2017-06-12T11:19:44.299Z,46.90
2017-06-12T11:22:12.585Z,47.80
2017-06-12T11:24:40.855Z,48.20
2017-06-12T11:27:09.184Z,47.50
2017-06-12T11:29:37.453Z,48.50
2017-06-12T11:32:07.644Z,47.20
2017-06-12T11:34:35.955Z,47.30
2017-06-12T11:37:04.221Z,47.00
2017-06-12T11:39:32.523Z,47.50
2017-06-12T11:42:00.982Z,48.20
2017-06-12T11:44:29.235Z,47.00
2017-06-12T11:46:57.511Z,47.50
2017-06-12T11:49:25.829Z,46.30
2017-06-12T11:51:54.106Z,47.40
2017-06-12T11:54:22.388Z,46.30
2017-06-12T11:56:50.720Z,45.70
2017-06-12T11:59:18.993Z,45.20
2017-06-12T12:01:47.283Z,45.80
2017-06-12T12:04:15.603Z,46.00
2017-06-12T12:06:44.647Z,45.70
2017-06-12T12:09:12.920Z,45.30
2017-06-12T12:11:41.248Z,44.80
2017-06-12T12:14:09.523Z,44.50
2017-06-12T12:16:37.810Z,44.20
2017-06-12T12:19:06.133Z,44.30
2017-06-12T12:21:34.402Z,44.10
2017-06-12T12:24:02.680Z,43.90
2017-06-12T12:26:30.994Z,43.70
2017-06-12T12:28:59.267Z,43.80
2017-06-12T12:31:27.543Z,43.50
2017-06-12T12:33:55.871Z,42.70
2017-06-12T12:36:24.151Z,42.30
2017-06-12T12:38:52.437Z,43.20
2017-06-12T12:41:20.748Z,42.40
2017-06-12T12:43:49.051Z,41.90
2017-06-12T12:46:17.367Z,41.60
2017-06-12T12:48:45.700Z,41.70
2017-06-12T12:51:13.987Z,42.20
2017-06-12T12:53:42.267Z,43.10
2017-06-12T12:56:10.584Z,42.60
2017-06-12T12:58:38.871Z,42.70
2017-06-12T13:01:07.151Z,41.90
2017-06-12T13:03:35.488Z,41.70
2017-06-12T13:06:03.764Z,41.90
2017-06-12T13:08:32.812Z,41.80
2017-06-12T13:11:01.127Z,41.80
2017-06-12T13:13:30.175Z,41.10
2017-06-12T13:15:58.453Z,41.40
2017-06-12T13:18:26.779Z,40.90
2017-06-12T13:20:55.194Z,40.70
2017-06-12T13:23:23.487Z,39.50
2017-06-12T13:25:51.806Z,40.10
2017-06-12T13:28:20.085Z,40.00
2017-06-12T13:30:48.356Z,40.40
2017-06-12T13:33:16.688Z,40.20
2017-06-12T13:35:44.963Z,40.40
2017-06-12T13:38:13.240Z,41.20
2017-06-12T13:40:41.556Z,41.20
2017-06-12T13:43:09.933Z,41.10
2017-06-12T13:45:38.203Z,40.90
2017-06-12T13:48:06.521Z,40.40
2017-06-12T13:50:34.808Z,40.50
2017-06-12T13:53:03.084Z,40.10
2017-06-12T13:55:31.407Z,40.20
2017-06-12T13:57:59.685Z,38.90
2017-06-12T14:00:27.960Z,39.30
2017-06-12T14:02:56.272Z,38.10
2017-06-12T14:05:24.548Z,37.60
2017-06-12T14:07:52.816Z,38.10
2017-06-12T14:10:21.171Z,36.80
2017-06-12T14:12:49.457Z,36.90
2017-06-12T14:15:17.761Z,36.10
2017-06-12T14:17:46.074Z,35.50
2017-06-12T14:20:14.351Z,35.50
2017-06-12T14:22:42.634Z,35.40
2017-06-12T14:25:10.958Z,35.00
2017-06-12T14:27:39.237Z,35.90
2017-06-12T14:30:07.509Z,36.00
2017-06-12T14:32:35.828Z,35.90
2017-06-12T14:35:04.116Z,36.00
2017-06-12T14:37:32.392Z,35.40
2017-06-12T14:40:00.723Z,34.60
2017-06-12T14:42:29.007Z,36.40
2017-06-12T14:44:57.283Z,34.10
2017-06-12T14:47:25.622Z,34.30
2017-06-12T14:49:53.975Z,35.00
2017-06-12T14:52:23.003Z,36.80
2017-06-12T14:54:51.323Z,36.70
2017-06-12T14:57:20.359Z,36.30
2017-06-12T14:59:48.635Z,36.30
2017-06-12T15:02:16.954Z,36.40
2017-06-12T15:04:45.228Z,35.90
2017-06-12T15:07:13.503Z,35.40
2017-06-12T15:09:41.889Z,36.60
2017-06-12T15:12:10.168Z,36.80
2017-06-12T15:14:38.439Z,35.70
2017-06-12T15:17:06.755Z,36.00
2017-06-12T15:19:35.028Z,35.00
2017-06-12T15:22:03.296Z,37.30
2017-06-12T15:24:31.611Z,37.70
2017-06-12T15:26:59.887Z,36.90
2017-06-12T15:29:28.164Z,36.50
2017-06-12T15:31:56.500Z,35.40
2017-06-12T15:34:24.774Z,36.30
2017-06-12T15:36:53.083Z,35.80
2017-06-12T15:39:21.398Z,35.10
2017-06-12T15:41:49.681Z,36.20
2017-06-12T15:44:17.952Z,37.30
2017-06-12T15:46:46.270Z,37.00
2017-06-12T15:49:15.307Z,35.60
2017-06-12T15:51:43.586Z,35.50
2017-06-12T15:54:11.891Z,35.40
2017-06-12T15:56:40.171Z,35.80
2017-06-12T15:59:08.463Z,35.80
2017-06-12T16:01:37.551Z,37.50
2017-06-12T16:04:05.823Z,36.90
2017-06-12T16:06:34.104Z,37.20
2017-06-12T16:09:02.432Z,36.80
2017-06-12T16:11:30.716Z,35.80
2017-06-12T16:13:58.991Z,34.90
2017-06-12T16:16:27.306Z,35.70
2017-06-12T16:18:55.633Z,35.10
2017-06-12T16:21:23.935Z,35.50
2017-06-12T16:23:52.252Z,35.90
2017-06-12T16:26:20.542Z,36.00
2017-06-12T16:28:48.814Z,36.40
2017-06-12T16:31:17.139Z,36.00
2017-06-12T16:33:45.423Z,36.30
2017-06-12T16:36:13.730Z,35.60
2017-06-12T16:38:42.035Z,35.70
2017-06-12T16:41:11.079Z,35.40
2017-06-12T16:43:39.359Z,35.40
2017-06-12T16:46:07.688Z,34.50
2017-06-12T16:48:36.732Z,35.00
2017-06-12T16:51:06.587Z,35.00
2017-06-12T16:53:35.687Z,35.30
2017-06-12T16:56:04.816Z,35.10
2017-06-12T16:58:33.101Z,35.10
2017-06-12T17:01:01.460Z,35.50
2017-06-12T17:03:29.815Z,35.00
2017-06-12T17:05:58.087Z,35.20
2017-06-12T17:08:26.411Z,35.20
2017-06-12T17:10:54.686Z,35.40
2017-06-12T17:13:22.969Z,34.90
2017-06-12T17:15:51.293Z,34.70
2017-06-12T17:18:19.575Z,35.00
2017-06-12T17:20:48.791Z,34.70
2017-06-12T17:23:17.917Z,34.60
2017-06-12T17:25:46.260Z,34.60
2017-06-12T17:28:14.591Z,34.30
2017-06-12T17:30:42.916Z,34.20
2017-06-12T17:33:11.191Z,34.30
2017-06-12T17:35:40.233Z,35.60
2017-06-12T17:38:08.549Z,35.60
2017-06-12T17:40:36.824Z,34.80
2017-06-12T17:43:05.107Z,35.10
2017-06-12T17:45:33.419Z,34.80
2017-06-12T17:48:01.745Z,35.00
2017-06-12T17:50:30.010Z,35.00
2017-06-12T17:52:58.328Z,35.50
2017-06-12T17:55:27.371Z,35.70
2017-06-12T17:57:55.645Z,35.70
2017-06-12T18:00:23.986Z,36.20
2017-06-12T18:02:52.268Z,36.00
2017-06-12T18:05:20.539Z,35.70
2017-06-12T18:07:49.623Z,35.30
2017-06-12T18:10:17.907Z,35.30
2017-06-12T18:12:46.171Z,35.00
2017-06-12T18:15:14.468Z,34.70
2017-06-12T18:17:43.511Z,35.20
2017-06-12T18:20:11.847Z,35.20
2017-06-12T18:22:40.878Z,35.60
2017-06-12T18:25:09.159Z,35.60
2017-06-12T18:27:37.477Z,36.40
2017-06-12T18:30:05.795Z,36.00
2017-06-12T18:32:34.068Z,36.10
2017-06-12T18:35:02.375Z,36.20
2017-06-12T18:37:30.647Z,36.30
2017-06-12T18:39:58.916Z,36.30
2017-06-12T18:42:27.203Z,36.30
2017-06-12T18:44:55.479Z,35.60
2017-06-12T18:47:23.775Z,35.60
2017-06-12T18:49:52.043Z,35.90
2017-06-12T18:52:20.339Z,35.90
2017-06-12T18:54:48.603Z,35.80
2017-06-12T18:57:16.942Z,36.20
2017-06-12T18:59:45.209Z,36.20
2017-06-12T19:02:13.499Z,36.70
2017-06-12T19:04:41.790Z,36.80
2017-06-12T19:07:10.907Z,36.50
2017-06-12T19:09:39.175Z,36.80
2017-06-12T19:12:07.469Z,36.80
2017-06-12T19:14:35.754Z,36.90
2017-06-12T19:17:04.028Z,36.90
2017-06-12T19:19:32.304Z,37.20
2017-06-12T19:22:00.581Z,36.90
2017-06-12T19:24:28.858Z,37.10
2017-06-12T19:26:57.127Z,37.00
2017-06-12T19:29:25.415Z,37.30
2017-06-12T19:31:53.687Z,37.50
2017-06-12T19:34:21.971Z,37.50
2017-06-12T19:36:50.239Z,37.30
2017-06-12T19:39:18.530Z,37.70
2017-06-12T19:41:46.829Z,37.50
2017-06-12T19:44:15.871Z,37.90
2017-06-12T19:46:44.143Z,37.90
2017-06-12T19:49:12.432Z,37.50
2017-06-12T19:51:40.704Z,37.80
2017-06-12T19:54:08.974Z,37.80
2017-06-12T19:56:37.263Z,38.20
2017-06-12T19:59:05.542Z,38.20
2017-06-12T20:01:33.815Z,38.00
2017-06-12T20:04:02.085Z,38.20
2017-06-12T20:06:30.368Z,38.20
2017-06-12T20:08:58.638Z,38.40
2017-06-12T20:11:26.924Z,38.60
2017-06-12T20:13:55.233Z,38.50
2017-06-12T20:16:23.515Z,38.50
2017-06-12T20:18:52.547Z,39.20
2017-06-12T20:21:20.834Z,38.60
2017-06-12T20:23:49.096Z,38.60
2017-06-12T20:26:17.425Z,38.50
2017-06-12T20:28:45.684Z,38.70
2017-06-12T20:31:13.955Z,39.10
2017-06-12T20:33:42.240Z,39.20
2017-06-12T20:36:10.512Z,39.60
2017-06-12T20:38:38.800Z,39.70
2017-06-12T20:41:07.077Z,39.90
2017-06-12T20:43:35.364Z,39.90
2017-06-12T20:46:03.640Z,40.10
2017-06-12T20:48:31.926Z,40.40
2017-06-12T20:51:00.194Z,40.30
2017-06-12T20:53:28.476Z,41.00
2017-06-12T20:55:56.744Z,41.40
2017-06-12T20:58:25.027Z,41.80
2017-06-12T21:00:53.303Z,41.10
2017-06-12T21:03:21.595Z,41.30
2017-06-12T21:05:50.649Z,41.80
2017-06-12T21:08:18.916Z,41.70
2017-06-12T21:10:47.210Z,41.60
2017-06-12T21:13:15.480Z,41.20
2017-06-12T21:15:43.769Z,41.40
2017-06-12T21:18:12.034Z,41.60
2017-06-12T21:20:40.319Z,41.90
2017-06-12T21:23:08.583Z,42.40
2017-06-12T21:25:36.867Z,41.90
2017-06-12T21:28:05.135Z,41.40
2017-06-12T21:30:33.432Z,41.50
2017-06-12T21:33:01.699Z,41.60
2017-06-12T21:35:29.984Z,41.60
2017-06-12T21:37:58.260Z,42.20
2017-06-12T21:40:26.579Z,41.60
2017-06-12T21:42:55.620Z,42.00
2017-06-12T21:45:23.896Z,42.60
2017-06-12T21:47:52.184Z,42.60
2017-06-12T21:50:20.461Z,42.40
2017-06-12T21:52:48.742Z,42.50
2017-06-12T21:55:17.016Z,42.80
2017-06-12T21:57:45.319Z,43.00
2017-06-12T22:00:13.583Z,43.10
2017-06-12T22:02:42.038Z,43.70
2017-06-12T22:05:10.328Z,44.30
2017-06-12T22:07:38.637Z,44.40
2017-06-12T22:10:07.003Z,44.50
2017-06-12T22:12:35.275Z,43.60
2017-06-12T22:15:03.552Z,44.00
2017-06-12T22:17:31.831Z,44.10
2017-06-12T22:20:00.099Z,44.30
2017-06-12T22:22:28.411Z,44.30
2017-06-12T22:24:57.443Z,44.30
2017-06-12T22:27:25.715Z,44.20
2017-06-12T22:29:53.999Z,44.60
2017-06-12T22:32:22.267Z,45.30
2017-06-12T22:34:50.565Z,44.90
2017-06-12T22:37:18.839Z,44.70
2017-06-12T22:39:47.119Z,45.60
2017-06-12T22:42:15.387Z,45.40
2017-06-12T22:44:43.675Z,45.60
2017-06-12T22:47:11.945Z,45.20
2017-06-12T22:49:40.243Z,45.60
2017-06-12T22:52:08.519Z,45.90
2017-06-12T22:54:36.826Z,46.00
2017-06-12T22:57:05.875Z,46.80
2017-06-12T22:59:34.140Z,46.60
2017-06-12T23:02:02.432Z,46.60
2017-06-12T23:04:30.702Z,46.60
2017-06-12T23:06:58.983Z,45.70
2017-06-12T23:09:27.258Z,45.50
2017-06-12T23:11:55.544Z,45.70
2017-06-12T23:14:23.809Z,45.80
2017-06-12T23:16:52.089Z,46.20
2017-06-12T23:19:20.363Z,46.40
2017-06-12T23:21:54.251Z,46.60
2017-06-12T23:24:22.515Z,47.10
2017-06-12T23:26:50.816Z,47.20
2017-06-12T23:29:19.072Z,47.50
2017-06-12T23:31:47.351Z,47.60
2017-06-12T23:34:15.624Z,47.50
2017-06-12T23:36:43.915Z,47.90
2017-06-12T23:39:12.196Z,47.60
2017-06-12T23:41:40.486Z,46.90
2017-06-12T23:44:08.757Z,47.10
2017-06-12T23:46:37.077Z,47.40
2017-06-12T23:49:05.349Z,47.00
2017-06-12T23:51:33.623Z,47.10
2017-06-12T23:54:01.908Z,47.00
2017-06-12T23:56:30.189Z,47.10
2017-06-12T23:58:58.472Z,47.30
